sensor_id;sensor_type;location;lat;lon;timestamp;P1;durP1;ratioP1;P2;durP2;ratioP2
69511;SDS011;70777;52.034;4.644;2024-02-04T00:00:29;29.80;;;9.80;;
69511;SDS011;70777;52.034;4.644;2024-02-04T00:02:54;24.23;;;9.27;;
69511;SDS011;70777;52.034;4.644;2024-02-04T00:05:20;30.00;;;8.52;;
69511;SDS011;70777;52.034;4.644;2024-02-04T00:07:45;29.98;;;9.10;;
69511;SDS011;70777;52.034;4.644;2024-02-04T00:10:11;35.92;;;9.50;;
69511;SDS011;70777;52.034;4.644;2024-02-04T00:12:37;25.13;;;8.48;;
69511;SDS011;70777;52.034;4.644;2024-02-04T00:15:04;22.85;;;8.10;;
69511;SDS011;70777;52.034;4.644;2024-02-04T00:17:30;22.42;;;8.02;;
69511;SDS011;70777;52.034;4.644;2024-02-04T00:19:58;29.98;;;8.55;;
69511;SDS011;70777;52.034;4.644;2024-02-04T00:22:24;27.45;;;7.72;;
69511;SDS011;70777;52.034;4.644;2024-02-04T00:24:49;26.50;;;8.00;;
69511;SDS011;70777;52.034;4.644;2024-02-04T00:27:15;21.05;;;7.13;;
69511;SDS011;70777;52.034;4.644;2024-02-04T00:29:40;22.15;;;7.80;;
69511;SDS011;70777;52.034;4.644;2024-02-04T00:32:05;21.38;;;7.70;;
69511;SDS011;70777;52.034;4.644;2024-02-04T00:34:31;23.13;;;7.75;;
69511;SDS011;70777;52.034;4.644;2024-02-04T00:36:56;19.00;;;8.35;;
69511;SDS011;70777;52.034;4.644;2024-02-04T00:39:22;22.67;;;8.30;;
69511;SDS011;70777;52.034;4.644;2024-02-04T00:41:47;26.45;;;8.30;;
69511;SDS011;70777;52.034;4.644;2024-02-04T00:44:13;17.38;;;7.35;;
69511;SDS011;70777;52.034;4.644;2024-02-04T00:46:38;24.13;;;7.50;;
69511;SDS011;70777;52.034;4.644;2024-02-04T00:49:03;19.60;;;7.90;;
69511;SDS011;70777;52.034;4.644;2024-02-04T00:51:29;22.50;;;8.25;;
69511;SDS011;70777;52.034;4.644;2024-02-04T00:53:54;24.35;;;7.63;;
69511;SDS011;70777;52.034;4.644;2024-02-04T00:56:20;22.40;;;7.55;;
69511;SDS011;70777;52.034;4.644;2024-02-04T00:58:45;18.73;;;7.75;;
69511;SDS011;70777;52.034;4.644;2024-02-04T01:01:11;21.55;;;7.65;;
69511;SDS011;70777;52.034;4.644;2024-02-04T01:03:36;21.13;;;8.23;;
69511;SDS011;70777;52.034;4.644;2024-02-04T01:06:02;22.25;;;8.23;;
69511;SDS011;70777;52.034;4.644;2024-02-04T01:08:27;30.67;;;8.65;;
69511;SDS011;70777;52.034;4.644;2024-02-04T01:10:53;20.60;;;8.50;;
69511;SDS011;70777;52.034;4.644;2024-02-04T01:13:18;28.88;;;8.98;;
69511;SDS011;70777;52.034;4.644;2024-02-04T01:15:44;26.02;;;9.65;;
69511;SDS011;70777;52.034;4.644;2024-02-04T01:18:09;23.55;;;9.80;;
69511;SDS011;70777;52.034;4.644;2024-02-04T01:20:35;19.08;;;9.05;;
69511;SDS011;70777;52.034;4.644;2024-02-04T01:23:00;25.90;;;9.50;;
69511;SDS011;70777;52.034;4.644;2024-02-04T01:25:26;22.70;;;9.32;;
69511;SDS011;70777;52.034;4.644;2024-02-04T01:27:51;25.95;;;9.10;;
69511;SDS011;70777;52.034;4.644;2024-02-04T01:30:16;24.20;;;10.25;;
69511;SDS011;70777;52.034;4.644;2024-02-04T01:32:42;28.63;;;9.45;;
69511;SDS011;70777;52.034;4.644;2024-02-04T01:35:07;20.88;;;8.20;;
69511;SDS011;70777;52.034;4.644;2024-02-04T01:37:33;25.02;;;9.95;;
69511;SDS011;70777;52.034;4.644;2024-02-04T01:39:58;24.45;;;9.02;;
69511;SDS011;70777;52.034;4.644;2024-02-04T01:42:24;21.88;;;8.73;;
69511;SDS011;70777;52.034;4.644;2024-02-04T01:44:49;22.98;;;9.50;;
69511;SDS011;70777;52.034;4.644;2024-02-04T01:47:14;26.52;;;10.52;;
69511;SDS011;70777;52.034;4.644;2024-02-04T01:49:40;21.55;;;8.98;;
69511;SDS011;70777;52.034;4.644;2024-02-04T01:52:06;22.73;;;9.02;;
69511;SDS011;70777;52.034;4.644;2024-02-04T01:54:32;27.02;;;8.85;;
69511;SDS011;70777;52.034;4.644;2024-02-04T01:56:58;27.70;;;9.10;;
69511;SDS011;70777;52.034;4.644;2024-02-04T01:59:26;28.52;;;9.02;;
69511;SDS011;70777;52.034;4.644;2024-02-04T02:01:55;23.27;;;8.35;;
69511;SDS011;70777;52.034;4.644;2024-02-04T02:04:29;24.23;;;8.35;;
69511;SDS011;70777;52.034;4.644;2024-02-04T02:06:55;26.77;;;8.75;;
69511;SDS011;70777;52.034;4.644;2024-02-04T02:09:21;21.20;;;8.05;;
69511;SDS011;70777;52.034;4.644;2024-02-04T02:11:47;25.17;;;7.72;;
69511;SDS011;70777;52.034;4.644;2024-02-04T02:14:23;22.10;;;7.22;;
69511;SDS011;70777;52.034;4.644;2024-02-04T02:16:52;21.90;;;7.28;;
69511;SDS011;70777;52.034;4.644;2024-02-04T02:22:06;28.13;;;8.52;;
69511;SDS011;70777;52.034;4.644;2024-02-04T02:24:40;23.67;;;9.13;;
69511;SDS011;70777;52.034;4.644;2024-02-04T02:27:07;20.67;;;8.93;;
69511;SDS011;70777;52.034;4.644;2024-02-04T02:29:32;18.90;;;8.10;;
69511;SDS011;70777;52.034;4.644;2024-02-04T02:31:58;30.20;;;8.82;;
69511;SDS011;70777;52.034;4.644;2024-02-04T02:34:24;31.02;;;7.72;;
69511;SDS011;70777;52.034;4.644;2024-02-04T02:37:33;27.05;;;8.35;;
69511;SDS011;70777;52.034;4.644;2024-02-04T02:39:54;23.38;;;8.23;;
69511;SDS011;70777;52.034;4.644;2024-02-04T02:42:23;18.58;;;6.78;;
69511;SDS011;70777;52.034;4.644;2024-02-04T02:44:49;22.77;;;5.53;;
69511;SDS011;70777;52.034;4.644;2024-02-04T02:47:15;21.08;;;7.13;;
69511;SDS011;70777;52.034;4.644;2024-02-04T02:49:42;21.73;;;5.88;;
69511;SDS011;70777;52.034;4.644;2024-02-04T02:52:08;21.55;;;6.53;;
69511;SDS011;70777;52.034;4.644;2024-02-04T02:54:33;25.30;;;7.18;;
69511;SDS011;70777;52.034;4.644;2024-02-04T02:56:59;18.48;;;6.15;;
69511;SDS011;70777;52.034;4.644;2024-02-04T02:59:24;19.00;;;6.60;;
69511;SDS011;70777;52.034;4.644;2024-02-04T03:01:49;15.98;;;7.05;;
69511;SDS011;70777;52.034;4.644;2024-02-04T03:04:15;20.55;;;6.47;;
69511;SDS011;70777;52.034;4.644;2024-02-04T03:06:40;17.55;;;7.30;;
69511;SDS011;70777;52.034;4.644;2024-02-04T03:09:05;23.60;;;8.25;;
69511;SDS011;70777;52.034;4.644;2024-02-04T03:11:31;21.38;;;7.70;;
69511;SDS011;70777;52.034;4.644;2024-02-04T03:13:57;14.23;;;6.60;;
69511;SDS011;70777;52.034;4.644;2024-02-04T03:16:22;17.50;;;8.23;;
69511;SDS011;70777;52.034;4.644;2024-02-04T03:18:48;22.38;;;8.45;;
69511;SDS011;70777;52.034;4.644;2024-02-04T03:21:13;22.38;;;7.95;;
69511;SDS011;70777;52.034;4.644;2024-02-04T03:23:40;29.87;;;8.50;;
69511;SDS011;70777;52.034;4.644;2024-02-04T03:26:06;22.80;;;9.60;;
69511;SDS011;70777;52.034;4.644;2024-02-04T03:28:32;22.95;;;9.23;;
69511;SDS011;70777;52.034;4.644;2024-02-04T03:30:57;23.30;;;9.90;;
69511;SDS011;70777;52.034;4.644;2024-02-04T03:33:23;27.88;;;9.60;;
69511;SDS011;70777;52.034;4.644;2024-02-04T03:35:48;20.35;;;9.65;;
69511;SDS011;70777;52.034;4.644;2024-02-04T03:38:13;34.30;;;11.18;;
69511;SDS011;70777;52.034;4.644;2024-02-04T03:40:39;27.63;;;11.73;;
69511;SDS011;70777;52.034;4.644;2024-02-04T03:43:07;25.48;;;10.70;;
69511;SDS011;70777;52.034;4.644;2024-02-04T03:45:36;30.08;;;10.65;;
69511;SDS011;70777;52.034;4.644;2024-02-04T03:48:01;27.70;;;10.38;;
69511;SDS011;70777;52.034;4.644;2024-02-04T03:50:27;29.67;;;10.50;;
69511;SDS011;70777;52.034;4.644;2024-02-04T03:52:53;26.08;;;11.57;;
69511;SDS011;70777;52.034;4.644;2024-02-04T03:55:18;27.73;;;10.40;;
69511;SDS011;70777;52.034;4.644;2024-02-04T03:57:44;29.95;;;10.70;;
69511;SDS011;70777;52.034;4.644;2024-02-04T04:00:10;32.67;;;10.18;;
69511;SDS011;70777;52.034;4.644;2024-02-04T04:02:35;28.52;;;9.93;;
69511;SDS011;70777;52.034;4.644;2024-02-04T04:05:01;21.33;;;9.90;;
69511;SDS011;70777;52.034;4.644;2024-02-04T04:07:26;34.65;;;10.65;;
69511;SDS011;70777;52.034;4.644;2024-02-04T04:09:52;30.63;;;9.88;;
69511;SDS011;70777;52.034;4.644;2024-02-04T04:12:17;30.90;;;10.50;;
69511;SDS011;70777;52.034;4.644;2024-02-04T04:14:42;29.08;;;10.15;;
69511;SDS011;70777;52.034;4.644;2024-02-04T04:17:08;32.75;;;11.48;;
69511;SDS011;70777;52.034;4.644;2024-02-04T04:19:33;40.17;;;11.52;;
69511;SDS011;70777;52.034;4.644;2024-02-04T04:22:01;29.77;;;10.60;;
69511;SDS011;70777;52.034;4.644;2024-02-04T04:24:27;31.17;;;11.43;;
69511;SDS011;70777;52.034;4.644;2024-02-04T04:26:52;28.77;;;10.63;;
69511;SDS011;70777;52.034;4.644;2024-02-04T04:29:18;28.25;;;10.48;;
69511;SDS011;70777;52.034;4.644;2024-02-04T04:31:43;29.70;;;10.60;;
69511;SDS011;70777;52.034;4.644;2024-02-04T04:34:08;25.40;;;10.13;;
69511;SDS011;70777;52.034;4.644;2024-02-04T04:36:34;28.00;;;11.90;;
69511;SDS011;70777;52.034;4.644;2024-02-04T04:39:00;34.50;;;11.30;;
69511;SDS011;70777;52.034;4.644;2024-02-04T04:41:25;31.73;;;12.82;;
69511;SDS011;70777;52.034;4.644;2024-02-04T04:43:50;35.92;;;11.65;;
69511;SDS011;70777;52.034;4.644;2024-02-04T04:46:16;37.78;;;14.07;;
69511;SDS011;70777;52.034;4.644;2024-02-04T04:48:41;45.92;;;14.20;;
69511;SDS011;70777;52.034;4.644;2024-02-04T04:51:10;37.63;;;16.08;;
69511;SDS011;70777;52.034;4.644;2024-02-04T04:53:36;45.65;;;14.88;;
69511;SDS011;70777;52.034;4.644;2024-02-04T04:56:02;46.70;;;15.27;;
69511;SDS011;70777;52.034;4.644;2024-02-04T04:58:27;35.25;;;14.93;;
69511;SDS011;70777;52.034;4.644;2024-02-04T05:00:53;33.38;;;13.43;;
69511;SDS011;70777;52.034;4.644;2024-02-04T05:03:18;43.13;;;15.48;;
69511;SDS011;70777;52.034;4.644;2024-02-04T05:05:44;32.92;;;14.02;;
69511;SDS011;70777;52.034;4.644;2024-02-04T05:08:11;43.80;;;14.70;;
69511;SDS011;70777;52.034;4.644;2024-02-04T05:10:39;38.50;;;14.48;;
69511;SDS011;70777;52.034;4.644;2024-02-04T05:13:04;40.78;;;14.38;;
69511;SDS011;70777;52.034;4.644;2024-02-04T05:15:30;34.95;;;13.27;;
69511;SDS011;70777;52.034;4.644;2024-02-04T05:17:55;31.40;;;13.65;;
69511;SDS011;70777;52.034;4.644;2024-02-04T05:20:20;37.55;;;12.50;;
69511;SDS011;70777;52.034;4.644;2024-02-04T05:22:46;32.08;;;11.93;;
69511;SDS011;70777;52.034;4.644;2024-02-04T05:25:11;35.08;;;12.32;;
69511;SDS011;70777;52.034;4.644;2024-02-04T05:27:37;29.08;;;11.23;;
69511;SDS011;70777;52.034;4.644;2024-02-04T05:30:02;40.15;;;12.80;;
69511;SDS011;70777;52.034;4.644;2024-02-04T05:32:28;33.08;;;11.60;;
69511;SDS011;70777;52.034;4.644;2024-02-04T05:34:54;32.05;;;11.80;;
69511;SDS011;70777;52.034;4.644;2024-02-04T05:37:19;35.95;;;12.55;;
69511;SDS011;70777;52.034;4.644;2024-02-04T05:39:44;36.28;;;13.15;;
69511;SDS011;70777;52.034;4.644;2024-02-04T05:42:10;31.17;;;11.63;;
69511;SDS011;70777;52.034;4.644;2024-02-04T05:44:35;34.60;;;11.30;;
69511;SDS011;70777;52.034;4.644;2024-02-04T05:47:01;33.50;;;10.55;;
69511;SDS011;70777;52.034;4.644;2024-02-04T05:49:26;34.90;;;10.85;;
69511;SDS011;70777;52.034;4.644;2024-02-04T05:51:52;32.17;;;11.30;;
69511;SDS011;70777;52.034;4.644;2024-02-04T05:54:17;23.90;;;10.70;;
69511;SDS011;70777;52.034;4.644;2024-02-04T05:56:43;27.52;;;10.30;;
69511;SDS011;70777;52.034;4.644;2024-02-04T05:59:08;28.02;;;10.20;;
69511;SDS011;70777;52.034;4.644;2024-02-04T06:01:33;25.08;;;9.70;;
69511;SDS011;70777;52.034;4.644;2024-02-04T06:03:59;25.48;;;8.60;;
69511;SDS011;70777;52.034;4.644;2024-02-04T06:06:24;26.70;;;8.98;;
69511;SDS011;70777;52.034;4.644;2024-02-04T06:08:50;28.23;;;8.25;;
69511;SDS011;70777;52.034;4.644;2024-02-04T06:11:15;26.38;;;9.05;;
69511;SDS011;70777;52.034;4.644;2024-02-04T06:13:41;23.35;;;10.57;;
69511;SDS011;70777;52.034;4.644;2024-02-04T06:16:07;21.45;;;9.18;;
69511;SDS011;70777;52.034;4.644;2024-02-04T06:18:34;21.38;;;8.90;;
69511;SDS011;70777;52.034;4.644;2024-02-04T06:21:00;26.00;;;9.00;;
69511;SDS011;70777;52.034;4.644;2024-02-04T06:23:25;22.35;;;9.00;;
69511;SDS011;70777;52.034;4.644;2024-02-04T06:25:50;21.35;;;8.95;;
69511;SDS011;70777;52.034;4.644;2024-02-04T06:28:16;28.23;;;8.85;;
69511;SDS011;70777;52.034;4.644;2024-02-04T06:30:41;24.17;;;9.48;;
69511;SDS011;70777;52.034;4.644;2024-02-04T06:33:07;25.65;;;8.90;;
69511;SDS011;70777;52.034;4.644;2024-02-04T06:35:32;28.33;;;10.18;;
69511;SDS011;70777;52.034;4.644;2024-02-04T06:37:58;24.67;;;9.88;;
69511;SDS011;70777;52.034;4.644;2024-02-04T06:40:23;28.13;;;10.20;;
69511;SDS011;70777;52.034;4.644;2024-02-04T06:42:48;24.23;;;8.95;;
69511;SDS011;70777;52.034;4.644;2024-02-04T06:45:14;22.52;;;9.45;;
69511;SDS011;70777;52.034;4.644;2024-02-04T06:47:42;27.52;;;10.10;;
69511;SDS011;70777;52.034;4.644;2024-02-04T06:50:08;25.42;;;9.23;;
69511;SDS011;70777;52.034;4.644;2024-02-04T06:52:38;23.42;;;8.93;;
69511;SDS011;70777;52.034;4.644;2024-02-04T06:55:04;23.45;;;9.60;;
69511;SDS011;70777;52.034;4.644;2024-02-04T06:57:30;27.65;;;9.25;;
69511;SDS011;70777;52.034;4.644;2024-02-04T06:59:55;22.70;;;7.63;;
69511;SDS011;70777;52.034;4.644;2024-02-04T07:02:21;20.35;;;8.93;;
69511;SDS011;70777;52.034;4.644;2024-02-04T07:04:46;29.48;;;7.45;;
69511;SDS011;70777;52.034;4.644;2024-02-04T07:07:11;17.77;;;7.00;;
69511;SDS011;70777;52.034;4.644;2024-02-04T07:09:37;27.92;;;7.28;;
69511;SDS011;70777;52.034;4.644;2024-02-04T07:12:02;19.33;;;6.50;;
69511;SDS011;70777;52.034;4.644;2024-02-04T07:14:28;16.20;;;6.32;;
69511;SDS011;70777;52.034;4.644;2024-02-04T07:16:53;18.50;;;6.45;;
69511;SDS011;70777;52.034;4.644;2024-02-04T07:19:19;23.02;;;6.55;;
69511;SDS011;70777;52.034;4.644;2024-02-04T07:21:44;22.95;;;6.95;;
69511;SDS011;70777;52.034;4.644;2024-02-04T07:24:09;23.35;;;7.25;;
69511;SDS011;70777;52.034;4.644;2024-02-04T07:26:35;19.70;;;7.63;;
69511;SDS011;70777;52.034;4.644;2024-02-04T07:29:00;19.98;;;8.73;;
69511;SDS011;70777;52.034;4.644;2024-02-04T07:31:26;27.10;;;9.57;;
69511;SDS011;70777;52.034;4.644;2024-02-04T07:33:51;25.60;;;10.90;;
69511;SDS011;70777;52.034;4.644;2024-02-04T07:36:17;25.38;;;9.35;;
69511;SDS011;70777;52.034;4.644;2024-02-04T07:38:42;24.23;;;9.27;;
69511;SDS011;70777;52.034;4.644;2024-02-04T07:41:08;17.25;;;7.80;;
69511;SDS011;70777;52.034;4.644;2024-02-04T07:43:33;22.27;;;6.82;;
69511;SDS011;70777;52.034;4.644;2024-02-04T07:45:58;15.85;;;6.78;;
69511;SDS011;70777;52.034;4.644;2024-02-04T07:48:24;18.17;;;6.82;;
69511;SDS011;70777;52.034;4.644;2024-02-04T07:50:49;22.40;;;6.30;;
69511;SDS011;70777;52.034;4.644;2024-02-04T07:53:15;20.30;;;6.22;;
69511;SDS011;70777;52.034;4.644;2024-02-04T07:55:40;21.45;;;5.85;;
69511;SDS011;70777;52.034;4.644;2024-02-04T07:58:06;18.95;;;5.05;;
69511;SDS011;70777;52.034;4.644;2024-02-04T08:00:31;22.33;;;6.35;;
69511;SDS011;70777;52.034;4.644;2024-02-04T08:02:56;14.45;;;5.15;;
69511;SDS011;70777;52.034;4.644;2024-02-04T08:05:22;15.70;;;5.30;;
69511;SDS011;70777;52.034;4.644;2024-02-04T08:07:47;15.15;;;5.28;;
69511;SDS011;70777;52.034;4.644;2024-02-04T08:10:13;19.30;;;5.68;;
69511;SDS011;70777;52.034;4.644;2024-02-04T08:12:40;16.42;;;5.63;;
69511;SDS011;70777;52.034;4.644;2024-02-04T08:15:06;17.55;;;5.45;;
69511;SDS011;70777;52.034;4.644;2024-02-04T08:17:31;14.23;;;5.30;;
69511;SDS011;70777;52.034;4.644;2024-02-04T08:19:58;17.15;;;4.97;;
69511;SDS011;70777;52.034;4.644;2024-02-04T08:22:24;18.45;;;4.68;;
69511;SDS011;70777;52.034;4.644;2024-02-04T08:24:49;13.23;;;4.18;;
69511;SDS011;70777;52.034;4.644;2024-02-04T08:27:15;15.27;;;4.65;;
69511;SDS011;70777;52.034;4.644;2024-02-04T08:29:43;20.23;;;4.38;;
69511;SDS011;70777;52.034;4.644;2024-02-04T08:32:08;11.48;;;3.70;;
69511;SDS011;70777;52.034;4.644;2024-02-04T08:34:34;13.80;;;3.80;;
69511;SDS011;70777;52.034;4.644;2024-02-04T08:36:59;10.55;;;3.45;;
69511;SDS011;70777;52.034;4.644;2024-02-04T08:39:24;9.32;;;3.88;;
69511;SDS011;70777;52.034;4.644;2024-02-04T08:41:50;12.88;;;3.92;;
69511;SDS011;70777;52.034;4.644;2024-02-04T08:44:16;15.23;;;2.88;;
69511;SDS011;70777;52.034;4.644;2024-02-04T08:46:41;8.95;;;2.90;;
69511;SDS011;70777;52.034;4.644;2024-02-04T08:49:07;14.55;;;4.07;;
69511;SDS011;70777;52.034;4.644;2024-02-04T08:51:32;15.88;;;3.55;;
69511;SDS011;70777;52.034;4.644;2024-02-04T08:53:58;12.93;;;3.38;;
69511;SDS011;70777;52.034;4.644;2024-02-04T08:56:23;13.38;;;3.17;;
69511;SDS011;70777;52.034;4.644;2024-02-04T08:58:49;15.00;;;2.53;;
69511;SDS011;70777;52.034;4.644;2024-02-04T09:01:14;15.18;;;3.25;;
69511;SDS011;70777;52.034;4.644;2024-02-04T09:03:39;9.95;;;3.22;;
69511;SDS011;70777;52.034;4.644;2024-02-04T09:06:05;11.27;;;2.80;;
69511;SDS011;70777;52.034;4.644;2024-02-04T09:08:30;12.52;;;3.20;;
69511;SDS011;70777;52.034;4.644;2024-02-04T09:10:56;8.85;;;2.22;;
69511;SDS011;70777;52.034;4.644;2024-02-04T09:13:22;10.90;;;2.83;;
69511;SDS011;70777;52.034;4.644;2024-02-04T09:15:48;8.93;;;2.35;;
69511;SDS011;70777;52.034;4.644;2024-02-04T09:18:14;13.73;;;2.72;;
69511;SDS011;70777;52.034;4.644;2024-02-04T09:20:40;8.90;;;2.05;;
69511;SDS011;70777;52.034;4.644;2024-02-04T09:23:05;6.40;;;2.05;;
69511;SDS011;70777;52.034;4.644;2024-02-04T09:25:30;6.70;;;1.70;;
69511;SDS011;70777;52.034;4.644;2024-02-04T09:27:56;9.32;;;1.80;;
69511;SDS011;70777;52.034;4.644;2024-02-04T09:30:21;5.50;;;1.30;;
69511;SDS011;70777;52.034;4.644;2024-02-04T09:32:47;7.32;;;1.65;;
69511;SDS011;70777;52.034;4.644;2024-02-04T09:35:12;7.47;;;1.80;;
69511;SDS011;70777;52.034;4.644;2024-02-04T09:37:38;6.05;;;1.85;;
69511;SDS011;70777;52.034;4.644;2024-02-04T09:40:04;11.60;;;1.77;;
69511;SDS011;70777;52.034;4.644;2024-02-04T09:42:29;5.63;;;1.63;;
69511;SDS011;70777;52.034;4.644;2024-02-04T09:44:56;5.35;;;1.00;;
69511;SDS011;70777;52.034;4.644;2024-02-04T09:47:21;3.22;;;1.13;;
69511;SDS011;70777;52.034;4.644;2024-02-04T09:49:47;3.75;;;1.05;;
69511;SDS011;70777;52.034;4.644;2024-02-04T09:52:13;3.78;;;1.40;;
69511;SDS011;70777;52.034;4.644;2024-02-04T09:54:45;3.88;;;0.70;;
69511;SDS011;70777;52.034;4.644;2024-02-04T09:57:13;2.20;;;1.20;;
69511;SDS011;70777;52.034;4.644;2024-02-04T09:59:39;1.85;;;1.25;;
69511;SDS011;70777;52.034;4.644;2024-02-04T10:02:05;4.28;;;1.90;;
69511;SDS011;70777;52.034;4.644;2024-02-04T10:04:31;4.65;;;3.17;;
69511;SDS011;70777;52.034;4.644;2024-02-04T10:06:56;7.75;;;3.55;;
69511;SDS011;70777;52.034;4.644;2024-02-04T10:09:22;8.75;;;3.80;;
69511;SDS011;70777;52.034;4.644;2024-02-04T10:11:47;11.73;;;5.13;;
69511;SDS011;70777;52.034;4.644;2024-02-04T10:14:13;11.73;;;4.97;;
69511;SDS011;70777;52.034;4.644;2024-02-04T10:16:39;13.13;;;5.38;;
69511;SDS011;70777;52.034;4.644;2024-02-04T10:19:05;8.30;;;4.93;;
69511;SDS011;70777;52.034;4.644;2024-02-04T10:21:31;13.68;;;4.55;;
69511;SDS011;70777;52.034;4.644;2024-02-04T10:23:56;13.38;;;4.00;;
69511;SDS011;70777;52.034;4.644;2024-02-04T10:26:22;14.05;;;3.85;;
69511;SDS011;70777;52.034;4.644;2024-02-04T10:28:47;9.55;;;3.10;;
69511;SDS011;70777;52.034;4.644;2024-02-04T10:31:14;13.88;;;3.15;;
69511;SDS011;70777;52.034;4.644;2024-02-04T10:33:39;13.07;;;3.28;;
69511;SDS011;70777;52.034;4.644;2024-02-04T10:36:05;13.07;;;2.65;;
69511;SDS011;70777;52.034;4.644;2024-02-04T10:38:34;16.77;;;3.10;;
69511;SDS011;70777;52.034;4.644;2024-02-04T10:41:00;13.85;;;3.00;;
69511;SDS011;70777;52.034;4.644;2024-02-04T10:43:30;7.40;;;2.03;;
69511;SDS011;70777;52.034;4.644;2024-02-04T10:45:59;13.70;;;2.47;;
69511;SDS011;70777;52.034;4.644;2024-02-04T10:48:26;20.75;;;3.35;;
69511;SDS011;70777;52.034;4.644;2024-02-04T10:50:55;17.45;;;3.22;;
69511;SDS011;70777;52.034;4.644;2024-02-04T10:53:24;10.43;;;2.45;;
69511;SDS011;70777;52.034;4.644;2024-02-04T10:55:50;10.15;;;2.78;;
69511;SDS011;70777;52.034;4.644;2024-02-04T10:58:17;14.50;;;2.88;;
69511;SDS011;70777;52.034;4.644;2024-02-04T11:00:44;9.88;;;3.13;;
69511;SDS011;70777;52.034;4.644;2024-02-04T11:03:11;6.30;;;2.65;;
69511;SDS011;70777;52.034;4.644;2024-02-04T11:05:36;9.57;;;2.60;;
69511;SDS011;70777;52.034;4.644;2024-02-04T11:08:04;15.13;;;3.42;;
69511;SDS011;70777;52.034;4.644;2024-02-04T11:10:30;11.38;;;2.60;;
69511;SDS011;70777;52.034;4.644;2024-02-04T11:12:57;13.63;;;2.20;;
69511;SDS011;70777;52.034;4.644;2024-02-04T11:15:23;8.70;;;2.50;;
69511;SDS011;70777;52.034;4.644;2024-02-04T11:23:27;9.60;;;2.25;;
69511;SDS011;70777;52.034;4.644;2024-02-04T11:26:13;13.20;;;2.88;;
69511;SDS011;70777;52.034;4.644;2024-02-04T11:28:39;10.55;;;2.58;;
69511;SDS011;70777;52.034;4.644;2024-02-04T11:31:13;11.13;;;2.42;;
69511;SDS011;70777;52.034;4.644;2024-02-04T11:33:40;6.90;;;2.03;;
69511;SDS011;70777;52.034;4.644;2024-02-04T11:36:05;9.02;;;2.55;;
69511;SDS011;70777;52.034;4.644;2024-02-04T11:38:35;7.88;;;2.13;;
69511;SDS011;70777;52.034;4.644;2024-02-04T11:41:04;10.65;;;1.98;;
69511;SDS011;70777;52.034;4.644;2024-02-04T11:43:33;10.57;;;2.33;;
69511;SDS011;70777;52.034;4.644;2024-02-04T11:46:00;12.20;;;2.90;;
69511;SDS011;70777;52.034;4.644;2024-02-04T11:48:37;13.48;;;2.83;;
69511;SDS011;70777;52.034;4.644;2024-02-04T11:51:04;14.55;;;3.80;;
69511;SDS011;70777;52.034;4.644;2024-02-04T11:53:30;8.10;;;2.28;;
69511;SDS011;70777;52.034;4.644;2024-02-04T11:56:00;8.02;;;2.10;;
69511;SDS011;70777;52.034;4.644;2024-02-04T11:58:27;7.57;;;2.47;;
69511;SDS011;70777;52.034;4.644;2024-02-04T12:00:52;12.67;;;3.00;;
69511;SDS011;70777;52.034;4.644;2024-02-04T12:03:32;9.45;;;2.80;;
69511;SDS011;70777;52.034;4.644;2024-02-04T12:05:58;9.53;;;1.90;;
69511;SDS011;70777;52.034;4.644;2024-02-04T12:08:26;7.90;;;1.73;;
69511;SDS011;70777;52.034;4.644;2024-02-04T12:10:52;13.18;;;2.40;;
69511;SDS011;70777;52.034;4.644;2024-02-04T12:13:18;9.68;;;1.73;;
69511;SDS011;70777;52.034;4.644;2024-02-04T12:15:44;8.68;;;1.75;;
69511;SDS011;70777;52.034;4.644;2024-02-04T12:18:10;11.68;;;2.17;;
69511;SDS011;70777;52.034;4.644;2024-02-04T12:20:37;6.10;;;1.48;;
69511;SDS011;70777;52.034;4.644;2024-02-04T12:23:06;8.30;;;1.77;;
69511;SDS011;70777;52.034;4.644;2024-02-04T12:25:32;11.23;;;2.08;;
69511;SDS011;70777;52.034;4.644;2024-02-04T12:27:58;7.45;;;2.10;;
69511;SDS011;70777;52.034;4.644;2024-02-04T12:30:24;9.17;;;1.90;;
69511;SDS011;70777;52.034;4.644;2024-02-04T12:32:56;12.65;;;2.00;;
69511;SDS011;70777;52.034;4.644;2024-02-04T12:35:25;6.85;;;1.70;;
69511;SDS011;70777;52.034;4.644;2024-02-04T12:37:52;6.75;;;2.63;;
69511;SDS011;70777;52.034;4.644;2024-02-04T12:40:21;12.55;;;2.63;;
69511;SDS011;70777;52.034;4.644;2024-02-04T12:42:56;8.85;;;2.03;;
69511;SDS011;70777;52.034;4.644;2024-02-04T12:45:28;7.28;;;2.25;;
69511;SDS011;70777;52.034;4.644;2024-02-04T12:47:57;11.05;;;2.53;;
69511;SDS011;70777;52.034;4.644;2024-02-04T12:50:24;9.02;;;2.72;;
69511;SDS011;70777;52.034;4.644;2024-02-04T12:53:01;17.08;;;2.97;;
69511;SDS011;70777;52.034;4.644;2024-02-04T12:55:29;8.85;;;2.60;;
69511;SDS011;70777;52.034;4.644;2024-02-04T13:00:31;14.02;;;3.17;;
69511;SDS011;70777;52.034;4.644;2024-02-04T13:03:00;8.45;;;2.47;;
69511;SDS011;70777;52.034;4.644;2024-02-04T13:05:26;11.93;;;3.08;;
69511;SDS011;70777;52.034;4.644;2024-02-04T13:07:55;12.70;;;2.92;;
69511;SDS011;70777;52.034;4.644;2024-02-04T13:10:27;13.68;;;2.80;;
69511;SDS011;70777;52.034;4.644;2024-02-04T13:12:57;6.80;;;2.30;;
69511;SDS011;70777;52.034;4.644;2024-02-04T13:15:26;11.70;;;2.88;;
69511;SDS011;70777;52.034;4.644;2024-02-04T13:17:54;20.63;;;3.72;;
69511;SDS011;70777;52.034;4.644;2024-02-04T13:20:21;12.55;;;2.80;;
69511;SDS011;70777;52.034;4.644;2024-02-04T13:22:47;13.57;;;2.67;;
69511;SDS011;70777;52.034;4.644;2024-02-04T13:25:12;13.82;;;3.42;;
69511;SDS011;70777;52.034;4.644;2024-02-04T13:27:38;14.10;;;3.00;;
69511;SDS011;70777;52.034;4.644;2024-02-04T13:30:03;14.13;;;2.97;;
69511;SDS011;70777;52.034;4.644;2024-02-04T13:32:31;9.98;;;2.53;;
69511;SDS011;70777;52.034;4.644;2024-02-04T13:34:57;11.43;;;2.63;;
69511;SDS011;70777;52.034;4.644;2024-02-04T13:37:22;10.63;;;2.67;;
69511;SDS011;70777;52.034;4.644;2024-02-04T13:39:47;10.02;;;2.53;;
69511;SDS011;70777;52.034;4.644;2024-02-04T13:42:13;13.20;;;2.47;;
69511;SDS011;70777;52.034;4.644;2024-02-04T13:44:38;9.07;;;2.08;;
69511;SDS011;70777;52.034;4.644;2024-02-04T13:47:04;6.95;;;2.50;;
69511;SDS011;70777;52.034;4.644;2024-02-04T13:49:30;14.18;;;3.38;;
69511;SDS011;70777;52.034;4.644;2024-02-04T13:51:56;7.18;;;1.92;;
69511;SDS011;70777;52.034;4.644;2024-02-04T13:54:21;20.63;;;3.65;;
69511;SDS011;70777;52.034;4.644;2024-02-04T13:56:46;10.73;;;2.30;;
69511;SDS011;70777;52.034;4.644;2024-02-04T13:59:12;11.80;;;2.95;;
69511;SDS011;70777;52.034;4.644;2024-02-04T14:01:38;8.80;;;2.38;;
69511;SDS011;70777;52.034;4.644;2024-02-04T14:04:03;10.63;;;2.38;;
69511;SDS011;70777;52.034;4.644;2024-02-04T14:06:29;9.82;;;2.30;;
69511;SDS011;70777;52.034;4.644;2024-02-04T14:08:54;12.27;;;2.00;;
69511;SDS011;70777;52.034;4.644;2024-02-04T14:11:20;12.00;;;2.10;;
69511;SDS011;70777;52.034;4.644;2024-02-04T14:13:45;10.15;;;2.53;;
69511;SDS011;70777;52.034;4.644;2024-02-04T14:16:10;13.55;;;2.40;;
69511;SDS011;70777;52.034;4.644;2024-02-04T14:18:36;14.45;;;2.95;;
69511;SDS011;70777;52.034;4.644;2024-02-04T14:21:02;13.15;;;2.53;;
69511;SDS011;70777;52.034;4.644;2024-02-04T14:23:27;10.00;;;2.10;;
69511;SDS011;70777;52.034;4.644;2024-02-04T14:25:52;13.63;;;3.03;;
69511;SDS011;70777;52.034;4.644;2024-02-04T14:28:18;12.38;;;2.50;;
69511;SDS011;70777;52.034;4.644;2024-02-04T14:30:44;16.33;;;3.83;;
69511;SDS011;70777;52.034;4.644;2024-02-04T14:33:09;10.77;;;2.55;;
69511;SDS011;70777;52.034;4.644;2024-02-04T14:35:35;7.10;;;2.97;;
69511;SDS011;70777;52.034;4.644;2024-02-04T14:38:01;12.90;;;2.95;;